createdAt,value
2019-04-19T00:00:37.635Z,14.60
2019-04-19T00:03:12.696Z,13.70
2019-04-19T00:05:46.310Z,14.47
2019-04-19T00:08:28.794Z,13.85
2019-04-19T00:10:54.588Z,13.95
2019-04-19T00:13:19.760Z,14.55
2019-04-19T00:15:49.792Z,15.10
2019-04-19T00:18:21.359Z,13.55
2019-04-19T00:21:07.821Z,13.75
2019-04-19T00:23:31.160Z,13.83
2019-04-19T00:25:53.661Z,15.13
2019-04-19T00:28:35.250Z,14.87
2019-04-19T00:31:04.292Z,14.47
2019-04-19T00:33:32.826Z,15.63
2019-04-19T00:35:55.969Z,14.93
2019-04-19T00:38:45.264Z,14.75
2019-04-19T00:41:42.129Z,15.85
2019-04-19T00:44:39.894Z,14.55
2019-04-19T00:47:10.448Z,15.23
2019-04-19T00:49:33.693Z,14.20
2019-04-19T00:52:08.875Z,16.17
2019-04-19T00:54:31.997Z,15.53
2019-04-19T00:57:03.210Z,15.70
2019-04-19T00:59:33.154Z,15.25
2019-04-19T01:02:04.776Z,15.55
2019-04-19T01:04:32.016Z,15.32
2019-04-19T01:07:03.660Z,15.25
2019-04-19T01:09:44.169Z,15.30
2019-04-19T01:12:15.153Z,15.72
2019-04-19T01:14:40.393Z,15.40
2019-04-19T01:17:19.612Z,13.95
2019-04-19T01:19:45.079Z,14.55
2019-04-19T01:22:14.052Z,14.65
2019-04-19T01:24:44.557Z,15.25
2019-04-19T01:27:13.174Z,15.80
2019-04-19T01:29:46.836Z,16.48
2019-04-19T01:32:15.462Z,14.87
2019-04-19T01:34:46.759Z,14.47
2019-04-19T01:37:19.493Z,15.70
2019-04-19T01:40:04.315Z,15.15
2019-04-19T01:42:36.858Z,15.10
2019-04-19T01:45:15.300Z,14.30
2019-04-19T01:47:56.551Z,13.80
2019-04-19T01:51:04.440Z,13.50
2019-04-19T01:53:35.801Z,14.35
2019-04-19T01:55:54.272Z,14.18
2019-04-19T01:58:22.632Z,12.85
2019-04-19T02:00:56.733Z,15.75
2019-04-19T02:03:34.733Z,14.35
2019-04-19T02:06:01.267Z,14.80
2019-04-19T02:08:27.091Z,15.43
2019-04-19T02:11:43.260Z,14.85
2019-04-19T02:14:10.122Z,14.30
2019-04-19T02:16:34.619Z,14.28
2019-04-19T02:19:08.702Z,14.68
2019-04-19T02:21:38.072Z,14.98
2019-04-19T02:24:07.122Z,14.98
2019-04-19T02:26:40.506Z,13.85
2019-04-19T02:29:13.467Z,14.03
2019-04-19T02:32:09.170Z,14.90
2019-04-19T02:34:37.110Z,13.72
2019-04-19T02:37:08.004Z,14.23
2019-04-19T02:44:58.726Z,13.65
2019-04-19T02:47:26.858Z,13.78
2019-04-19T02:52:25.967Z,12.55
2019-04-19T02:55:07.768Z,13.60
2019-04-19T02:57:50.764Z,12.47
2019-04-19T03:00:47.169Z,12.80
2019-04-19T03:03:13.267Z,13.85
2019-04-19T03:07:53.771Z,14.47
2019-04-19T03:10:26.074Z,13.98
2019-04-19T03:13:08.041Z,12.93
2019-04-19T03:15:44.074Z,13.93
2019-04-19T03:18:19.674Z,12.63
2019-04-19T03:20:38.954Z,12.35
2019-04-19T03:23:13.175Z,12.25
2019-04-19T03:25:40.290Z,12.07
2019-04-19T03:28:11.071Z,13.15
2019-04-19T03:31:14.136Z,12.70
2019-04-19T03:35:57.093Z,13.72
2019-04-19T03:38:24.850Z,12.98
2019-04-19T03:40:54.207Z,13.38
2019-04-19T03:43:42.781Z,13.00
2019-04-19T03:46:07.829Z,11.73
2019-04-19T03:48:42.356Z,12.30
2019-04-19T03:53:48.818Z,13.08
2019-04-19T03:56:18.707Z,11.45
2019-04-19T03:58:26.683Z,13.45
2019-04-19T04:00:56.019Z,13.38
2019-04-19T04:03:31.289Z,12.05
2019-04-19T04:05:57.064Z,14.55
2019-04-19T04:08:32.338Z,13.30
2019-04-19T04:11:22.993Z,12.28
2019-04-19T04:14:12.726Z,11.55
2019-04-19T04:16:43.827Z,12.55
2019-04-19T04:19:10.302Z,12.93
2019-04-19T04:21:43.440Z,12.68
2019-04-19T04:24:20.803Z,13.75
2019-04-19T04:26:54.733Z,12.37
2019-04-19T04:29:22.893Z,12.00
2019-04-19T04:32:00.478Z,13.38
2019-04-19T04:34:27.026Z,13.68
2019-04-19T04:37:04.845Z,13.50
2019-04-19T04:39:19.683Z,12.30
2019-04-19T04:41:51.317Z,13.10
2019-04-19T04:44:40.848Z,12.95
2019-04-19T04:47:19.639Z,12.90
2019-04-19T04:50:18.113Z,12.60
2019-04-19T04:52:34.298Z,12.88
2019-04-19T04:55:09.705Z,12.58
2019-04-19T04:57:48.903Z,13.08
2019-04-19T05:00:10.196Z,13.90
2019-04-19T05:02:59.137Z,12.28
2019-04-19T05:05:30.107Z,12.63
2019-04-19T05:08:03.073Z,11.90
2019-04-19T05:10:29.424Z,13.68
2019-04-19T05:13:18.632Z,13.50
2019-04-19T05:15:34.747Z,13.30
2019-04-19T05:18:12.108Z,13.05
2019-04-19T05:20:38.474Z,13.18
2019-04-19T05:23:03.322Z,13.68
2019-04-19T05:25:41.244Z,13.13
2019-04-19T05:28:13.935Z,12.13
2019-04-19T05:30:34.805Z,12.93
2019-04-19T05:33:05.872Z,13.55
2019-04-19T05:35:50.395Z,13.43
2019-04-19T05:38:30.464Z,12.98
2019-04-19T05:41:08.233Z,12.95
2019-04-19T05:46:44.375Z,13.55
2019-04-19T05:49:45.803Z,12.43
2019-04-19T05:53:09.964Z,13.10
2019-04-19T06:07:56.646Z,12.58
2019-04-19T06:10:17.274Z,12.40
2019-04-19T06:12:49.584Z,12.43
2019-04-19T06:15:40.599Z,15.10
2019-04-19T06:18:31.756Z,12.95
2019-04-19T06:21:10.566Z,11.57
2019-04-19T06:23:43.914Z,12.15
2019-04-19T06:26:46.594Z,12.78
2019-04-19T06:28:50.503Z,11.38
2019-04-19T06:31:19.543Z,13.00
2019-04-19T06:33:42.714Z,12.05
2019-04-19T06:36:06.024Z,12.68
2019-04-19T06:38:33.504Z,11.68
2019-04-19T06:41:10.707Z,12.63
2019-04-19T06:43:50.605Z,10.82
2019-04-19T06:46:22.863Z,12.65
2019-04-19T06:48:52.333Z,11.65
2019-04-19T06:51:23.031Z,11.50
2019-04-19T06:53:50.314Z,12.10
2019-04-19T06:56:22.782Z,11.90
2019-04-19T06:58:55.871Z,12.65
2019-04-19T07:01:32.499Z,12.43
2019-04-19T07:03:52.172Z,11.90
2019-04-19T07:06:36.076Z,11.55
2019-04-19T07:09:31.116Z,11.18
2019-04-19T07:11:46.566Z,12.20
2019-04-19T07:14:06.688Z,12.20
2019-04-19T07:16:50.118Z,11.90
2019-04-19T07:19:19.311Z,12.23
2019-04-19T07:21:46.927Z,11.57
2019-04-19T07:24:36.475Z,11.40
2019-04-19T07:26:57.897Z,10.85
2019-04-19T07:29:12.738Z,10.95
2019-04-19T07:31:43.089Z,11.68
2019-04-19T07:34:30.983Z,11.93
2019-04-19T07:37:02.062Z,10.98
2019-04-19T07:39:38.887Z,11.68
2019-04-19T07:42:10.885Z,11.08
2019-04-19T07:44:41.093Z,10.45
2019-04-19T07:47:37.416Z,11.85
2019-04-19T07:50:08.420Z,9.80
2019-04-19T07:52:46.305Z,10.38
2019-04-19T07:58:16.990Z,10.70
2019-04-19T08:05:41.077Z,9.40
2019-04-19T08:08:17.573Z,10.58
2019-04-19T08:13:24.991Z,10.13
2019-04-19T08:15:56.013Z,9.30
2019-04-19T08:18:34.338Z,10.38
2019-04-19T08:28:13.113Z,8.15
2019-04-19T08:30:37.960Z,9.38
2019-04-19T08:33:02.063Z,8.78
2019-04-19T08:35:38.994Z,8.40
2019-04-19T08:38:08.596Z,7.35
2019-04-19T08:40:55.489Z,8.63
2019-04-19T08:43:21.347Z,7.30
2019-04-19T08:45:58.716Z,7.05
2019-04-19T08:48:53.517Z,6.95
2019-04-19T08:51:42.020Z,7.22
2019-04-19T08:54:31.651Z,7.22
2019-04-19T08:56:53.259Z,7.05
2019-04-19T08:59:39.658Z,7.10
2019-04-19T09:02:06.642Z,6.47
2019-04-19T09:04:38.793Z,6.17
2019-04-19T09:07:35.112Z,6.67
2019-04-19T09:09:42.716Z,6.17
2019-04-19T09:12:12.323Z,6.67
2019-04-19T09:14:43.659Z,6.12
2019-04-19T09:17:30.004Z,5.83
2019-04-19T09:20:04.370Z,6.80
2019-04-19T09:22:11.164Z,7.95
2019-04-19T09:24:41.392Z,6.95
2019-04-19T09:30:27.650Z,6.25
2019-04-19T09:32:40.173Z,6.37
2019-04-19T09:35:11.240Z,5.37
2019-04-19T09:38:00.387Z,6.67
2019-04-19T09:40:27.536Z,6.00
2019-04-19T09:46:23.178Z,6.87
2019-04-19T09:49:08.492Z,6.23
2019-04-19T09:51:41.457Z,7.07
2019-04-19T09:54:17.382Z,6.07
2019-04-19T09:56:41.228Z,5.87
2019-04-19T09:59:06.039Z,6.10
2019-04-19T10:01:30.217Z,5.80
2019-04-19T10:04:02.445Z,5.43
2019-04-19T10:06:28.869Z,5.73
2019-04-19T10:08:58.113Z,6.10
2019-04-19T10:11:27.367Z,5.40
2019-04-19T10:14:00.025Z,5.50
2019-04-19T10:16:52.612Z,5.70
2019-04-19T10:19:21.605Z,5.10
2019-04-19T10:22:04.517Z,6.10
2019-04-19T10:24:36.984Z,6.17
2019-04-19T10:27:31.498Z,5.70
2019-04-19T10:30:02.219Z,5.70
2019-04-19T10:32:58.246Z,5.60
2019-04-19T10:35:41.212Z,5.00
2019-04-19T10:38:09.871Z,5.83
2019-04-19T10:40:39.622Z,6.00
2019-04-19T10:43:09.263Z,5.43
2019-04-19T10:45:38.712Z,5.77
2019-04-19T10:48:07.689Z,5.83
2019-04-19T10:50:55.066Z,5.33
2019-04-19T10:53:24.359Z,4.83
2019-04-19T10:56:00.913Z,5.43
2019-04-19T10:58:29.858Z,6.80
2019-04-19T11:01:01.018Z,7.30
2019-04-19T11:03:59.034Z,6.60
2019-04-19T11:06:29.372Z,5.40
2019-04-19T11:09:00.499Z,6.00
2019-04-19T11:14:03.840Z,5.50
2019-04-19T11:16:33.377Z,5.33
2019-04-19T11:22:59.639Z,5.50
2019-04-19T11:25:46.629Z,5.80
2019-04-19T11:28:21.422Z,5.90
2019-04-19T11:31:05.109Z,5.23
2019-04-19T11:33:41.253Z,5.43
2019-04-19T11:36:11.177Z,5.87
2019-04-19T11:38:40.928Z,6.10
2019-04-19T11:41:11.229Z,5.57
2019-04-19T11:43:40.585Z,5.80
2019-04-19T11:46:09.731Z,5.80
2019-04-19T11:48:39.626Z,5.80
2019-04-19T11:51:09.751Z,5.17
2019-04-19T11:53:45.155Z,5.80
2019-04-19T11:56:54.186Z,5.80
2019-04-19T12:00:21.958Z,5.43
2019-04-19T12:03:20.220Z,5.57
2019-04-19T12:05:50.369Z,5.20
2019-04-19T12:08:22.481Z,5.67
2019-04-19T12:10:54.451Z,5.30
2019-04-19T12:13:24.863Z,6.50
2019-04-19T12:19:18.247Z,8.17
2019-04-19T12:21:47.599Z,7.33
2019-04-19T12:24:17.242Z,7.27
2019-04-19T12:26:47.634Z,6.67
2019-04-19T12:29:26.243Z,6.53
2019-04-19T12:31:49.747Z,6.70
2019-04-19T12:34:21.572Z,7.40
2019-04-19T12:36:51.005Z,8.30
2019-04-19T12:39:20.932Z,8.30
2019-04-19T12:41:50.203Z,7.53
2019-04-19T12:44:19.166Z,7.50
2019-04-19T12:46:48.755Z,7.30
2019-04-19T12:49:18.624Z,8.03
2019-04-19T12:51:48.659Z,7.97
2019-04-19T12:54:18.215Z,7.70
2019-04-19T12:56:47.634Z,7.50
2019-04-19T13:30:31.965Z,8.97
2019-04-19T13:33:39.569Z,9.43
2019-04-19T14:16:41.914Z,8.53
2019-04-19T14:20:36.961Z,8.37
2019-04-19T14:23:59.577Z,7.47
2019-04-19T14:43:02.541Z,9.57
2019-04-19T15:22:16.879Z,7.70
2019-04-19T15:29:45.503Z,7.40
2019-04-19T15:37:01.977Z,6.90
2019-04-19T15:51:13.547Z,7.93
2019-04-19T15:54:25.895Z,7.60
2019-04-19T16:02:16.528Z,7.67
2019-04-19T19:20:57.605Z,7.10
2019-04-19T19:29:14.094Z,14.60
2019-04-19T19:32:04.803Z,8.68
2019-04-19T19:34:39.416Z,10.88
2019-04-19T19:40:19.729Z,8.40
2019-04-19T19:42:56.062Z,8.70
2019-04-19T20:04:02.718Z,9.70
2019-04-19T20:06:58.667Z,10.23
2019-04-19T20:16:40.427Z,9.65
2019-04-19T20:23:58.937Z,10.03
2019-04-19T20:32:12.151Z,11.63
2019-04-19T20:38:49.772Z,10.95
